createdAt,value
2022-09-28T00:03:06.836Z,29.00
2022-09-28T00:08:09.324Z,29.20
2022-09-28T00:13:11.405Z,29.30
2022-09-28T00:18:13.481Z,29.20
2022-09-28T00:33:20.575Z,29.70
2022-09-28T00:38:25.631Z,29.70
2022-09-28T00:43:28.047Z,29.70
2022-09-28T00:48:36.310Z,29.80
2022-09-28T00:53:40.899Z,30.80
2022-09-28T00:58:47.523Z,30.10
2022-09-28T01:03:49.560Z,30.20
2022-09-28T01:08:55.959Z,31.10
2022-09-28T01:13:58.747Z,30.80
2022-09-28T01:19:33.507Z,31.20
2022-09-28T01:24:47.447Z,30.50
2022-09-28T01:30:05.589Z,30.50
2022-09-28T01:35:18.522Z,30.60
2022-09-28T01:40:23.614Z,30.40
2022-09-28T01:45:38.417Z,30.60
2022-09-28T01:50:43.642Z,30.70
2022-09-28T01:55:52.514Z,31.50
2022-09-28T02:01:01.072Z,30.70
2022-09-28T02:06:10.676Z,30.30
2022-09-28T02:11:14.151Z,31.40
2022-09-28T02:16:45.468Z,30.50
2022-09-28T02:22:13.252Z,30.30
2022-09-28T02:27:53.919Z,30.20
2022-09-28T02:33:02.547Z,31.10
2022-09-28T02:38:05.250Z,30.80
2022-09-28T02:43:24.615Z,30.80
2022-09-28T02:48:55.721Z,30.10
2022-09-28T02:54:29.917Z,30.70
2022-09-28T02:59:53.933Z,30.20
2022-09-28T03:05:13.981Z,30.10
2022-09-28T03:10:44.322Z,30.90
2022-09-28T03:15:48.972Z,30.30
2022-09-28T03:20:52.279Z,30.80
2022-09-28T03:25:54.732Z,30.10
2022-09-28T03:30:57.303Z,30.00
2022-09-28T03:35:59.376Z,30.00
2022-09-28T03:41:01.610Z,29.90
2022-09-28T03:46:05.551Z,29.80
2022-09-28T03:51:11.310Z,29.90
2022-09-28T03:56:15.552Z,29.80
2022-09-28T04:01:18.238Z,29.90
2022-09-28T04:06:20.798Z,30.20
2022-09-28T04:11:24.055Z,29.70
2022-09-28T04:16:26.612Z,29.70
2022-09-28T04:21:29.311Z,29.60
2022-09-28T04:26:31.917Z,29.60
2022-09-28T04:31:45.981Z,30.30
2022-09-28T04:36:49.887Z,30.20
2022-09-28T04:41:52.181Z,30.10
2022-09-28T04:46:56.215Z,29.80
2022-09-28T04:52:06.796Z,30.40
2022-09-28T04:57:08.960Z,29.80
2022-09-28T05:02:13.821Z,29.80
2022-09-28T05:07:17.157Z,29.80
2022-09-28T05:12:19.257Z,29.90
2022-09-28T05:17:23.366Z,29.80
2022-09-28T05:22:28.132Z,30.40
2022-09-28T05:27:30.523Z,30.40
2022-09-28T05:37:36.542Z,30.00
2022-09-28T05:42:40.484Z,30.00
2022-09-28T05:47:45.946Z,30.20
2022-09-28T05:52:58.463Z,30.10
2022-09-28T05:58:02.037Z,30.30
2022-09-28T06:03:11.016Z,30.40
2022-09-28T06:08:13.949Z,30.50
2022-09-28T06:13:16.649Z,31.00
2022-09-28T06:18:19.056Z,30.70
2022-09-28T06:23:21.820Z,31.70
2022-09-28T06:28:24.744Z,31.20
2022-09-28T06:33:26.863Z,31.20
2022-09-28T06:38:29.065Z,30.80
2022-09-28T06:43:34.365Z,29.90
2022-09-28T06:48:39.640Z,30.00
2022-09-28T06:53:43.518Z,30.20
2022-09-28T06:58:45.551Z,29.70
2022-09-28T07:03:49.684Z,29.60
2022-09-28T07:09:03.824Z,29.30
2022-09-28T07:14:28.294Z,29.20
2022-09-28T07:19:36.575Z,29.60
2022-09-28T07:24:38.661Z,29.20
2022-09-28T07:29:44.856Z,29.30
2022-09-28T07:34:48.643Z,28.90
2022-09-28T07:40:10.552Z,28.90
2022-09-28T07:45:13.012Z,28.90
2022-09-28T07:50:15.304Z,27.50
2022-09-28T07:55:17.872Z,27.40
2022-09-28T08:00:21.084Z,27.20
2022-09-28T08:05:23.051Z,26.60
2022-09-28T08:10:26.497Z,25.90
2022-09-28T08:15:36.872Z,26.60
2022-09-28T08:20:59.149Z,25.90
2022-09-28T08:26:01.949Z,25.70
2022-09-28T08:31:07.167Z,25.80
2022-09-28T08:36:11.493Z,25.20
2022-09-28T08:41:45.000Z,24.70
2022-09-28T08:46:51.319Z,24.40
2022-09-28T08:52:05.683Z,24.70
2022-09-28T08:57:29.924Z,23.40
2022-09-28T09:02:36.104Z,23.10
2022-09-28T09:08:02.383Z,22.90
2022-09-28T09:13:28.902Z,21.60
2022-09-28T09:18:41.423Z,22.50
2022-09-28T09:24:01.492Z,21.30
2022-09-28T09:29:18.310Z,22.00
2022-09-28T09:34:23.943Z,22.10
2022-09-28T09:39:59.426Z,21.40
2022-09-28T09:45:06.915Z,20.70
2022-09-28T09:50:39.318Z,20.70
2022-09-28T09:55:48.272Z,19.90
2022-09-28T10:00:54.119Z,19.60
2022-09-28T10:06:06.927Z,18.90
2022-09-28T10:11:21.880Z,20.10
2022-09-28T10:16:24.903Z,19.60
2022-09-28T10:21:29.514Z,18.70
2022-09-28T10:26:41.825Z,18.70
2022-09-28T10:31:50.322Z,18.30
2022-09-28T10:37:01.173Z,18.70
2022-09-28T10:42:08.617Z,18.10
2022-09-28T10:47:16.814Z,15.80
2022-09-28T10:52:45.109Z,16.80
2022-09-28T10:57:50.364Z,15.80
2022-09-28T11:02:52.882Z,16.20
2022-09-28T11:08:02.623Z,16.00
2022-09-28T11:13:09.406Z,15.20
2022-09-28T11:24:01.144Z,14.20
2022-09-28T11:29:04.758Z,14.40
2022-09-28T11:34:31.413Z,14.30
2022-09-28T11:40:15.598Z,14.50
2022-09-28T11:45:36.805Z,14.10
2022-09-28T11:50:57.866Z,14.10
2022-09-28T11:56:09.189Z,12.40
2022-09-28T12:01:22.207Z,12.60
2022-09-28T12:06:40.770Z,12.70
2022-09-28T12:11:48.660Z,12.40
2022-09-28T12:17:20.506Z,12.40
2022-09-28T12:22:36.248Z,12.60
2022-09-28T12:27:45.402Z,12.80
2022-09-28T12:32:56.070Z,12.90
2022-09-28T12:38:43.319Z,13.20
2022-09-28T12:43:55.050Z,13.10
2022-09-28T12:55:06.608Z,12.00
2022-09-28T13:00:15.990Z,12.20
2022-09-28T13:05:37.466Z,12.10
2022-09-28T13:11:15.650Z,12.20
2022-09-28T13:16:31.813Z,11.30
2022-09-28T13:22:04.955Z,11.30
2022-09-28T13:27:14.260Z,10.30
2022-09-28T13:32:17.339Z,10.20
2022-09-28T13:37:24.108Z,9.90
2022-09-28T13:42:41.670Z,10.30
2022-09-28T13:47:56.664Z,11.30
2022-09-28T13:53:19.602Z,10.20
2022-09-28T13:58:27.088Z,10.00
2022-09-28T14:04:01.440Z,10.10
2022-09-28T14:09:08.976Z,10.10
2022-09-28T14:14:11.774Z,9.90
2022-09-28T14:19:13.976Z,10.20
2022-09-28T14:24:37.222Z,10.40
2022-09-28T14:29:39.507Z,10.60
2022-09-28T14:34:44.408Z,6.90
2022-09-28T14:40:26.245Z,6.60
2022-09-28T14:45:38.184Z,5.40
2022-09-28T14:50:40.607Z,5.50
2022-09-28T14:55:50.540Z,2.40
2022-09-28T15:00:59.861Z,1.00
2022-09-28T15:06:01.930Z,1.00
2022-09-28T15:11:04.442Z,1.20
2022-09-28T15:16:10.298Z,1.00
2022-09-28T15:21:13.506Z,1.00
2022-09-28T15:26:33.052Z,1.00
2022-09-28T15:31:36.011Z,1.00
2022-09-28T15:36:44.171Z,1.00
2022-09-28T15:41:47.841Z,1.00
2022-09-28T15:46:53.559Z,1.00
2022-09-28T15:51:55.996Z,1.00
2022-09-28T15:57:02.292Z,1.00
2022-09-28T16:02:18.402Z,1.70
2022-09-28T16:07:23.186Z,4.00
2022-09-28T16:12:37.185Z,4.30
2022-09-28T16:17:39.532Z,6.50
2022-09-28T16:22:43.443Z,7.30
2022-09-28T16:27:45.645Z,8.40
2022-09-28T16:32:52.691Z,8.90
2022-09-28T16:37:59.685Z,8.10
2022-09-28T16:43:05.679Z,10.50
2022-09-28T16:48:13.440Z,11.10
2022-09-28T16:53:35.965Z,10.30
2022-09-28T16:58:38.853Z,10.70
2022-09-28T17:03:46.544Z,11.30
2022-09-28T17:08:48.604Z,11.90
2022-09-28T17:13:51.617Z,11.80
2022-09-28T17:18:53.653Z,13.30
2022-09-28T17:28:59.362Z,14.00
2022-09-28T17:34:01.589Z,13.50
2022-09-28T17:39:05.055Z,13.70
2022-09-28T17:44:07.493Z,14.10
2022-09-28T17:49:11.967Z,15.40
2022-09-28T17:54:16.649Z,14.80
2022-09-28T17:59:19.189Z,15.10
2022-09-28T18:04:47.178Z,15.40
2022-09-28T18:09:43.328Z,17.00
2022-09-28T18:14:46.918Z,17.10
2022-09-28T18:19:48.998Z,17.20
2022-09-28T18:24:51.068Z,18.10
2022-09-28T18:29:53.075Z,18.50
2022-09-28T18:34:55.105Z,17.80
2022-09-28T18:39:57.228Z,17.70
2022-09-28T18:44:59.285Z,18.00
2022-09-28T18:50:01.397Z,18.00
2022-09-28T18:55:05.167Z,18.50
2022-09-28T19:00:11.148Z,18.70
2022-09-28T19:05:13.279Z,20.10
2022-09-28T19:10:15.372Z,20.00
2022-09-28T19:20:20.932Z,19.40
2022-09-28T19:25:22.965Z,19.20
2022-09-28T19:30:24.974Z,20.20
2022-09-28T19:35:27.017Z,19.60
2022-09-28T19:40:29.130Z,20.10
2022-09-28T19:45:31.231Z,20.00
2022-09-28T19:50:33.339Z,20.00
2022-09-28T19:55:36.910Z,20.10
2022-09-28T20:00:38.992Z,20.60
2022-09-28T20:05:42.269Z,21.30
2022-09-28T20:10:52.400Z,21.60
2022-09-28T20:15:56.237Z,21.70
2022-09-28T20:21:03.555Z,21.00
2022-09-28T20:26:07.487Z,21.30
2022-09-28T20:31:16.118Z,21.50
2022-09-28T20:36:23.477Z,22.70
2022-09-28T20:41:25.604Z,21.70
2022-09-28T20:46:27.940Z,22.30
2022-09-28T20:51:30.166Z,21.90
2022-09-28T20:56:39.699Z,22.90
2022-09-28T21:01:41.874Z,22.10
2022-09-28T21:06:44.279Z,23.00
2022-09-28T21:11:47.855Z,22.30
2022-09-28T21:16:50.531Z,22.40
2022-09-28T21:21:52.620Z,22.40
2022-09-28T21:26:55.448Z,22.40
2022-09-28T21:31:57.378Z,22.40
2022-09-28T21:36:59.393Z,23.00
2022-09-28T21:42:01.509Z,23.60
2022-09-28T21:47:03.594Z,23.40
2022-09-28T21:52:05.651Z,22.60
2022-09-28T21:57:08.803Z,22.80
2022-09-28T22:02:10.814Z,22.80
2022-09-28T22:07:12.828Z,23.00
2022-09-28T22:12:15.804Z,22.70
2022-09-28T22:17:17.822Z,22.70
2022-09-28T22:22:19.909Z,22.90
2022-09-28T22:27:21.927Z,23.70
2022-09-28T22:32:24.040Z,23.50
2022-09-28T22:37:27.985Z,23.60
2022-09-28T22:42:30.260Z,23.30
2022-09-28T22:47:32.261Z,24.20
2022-09-28T22:52:34.275Z,23.70
2022-09-28T22:57:36.342Z,23.70
2022-09-28T23:02:38.381Z,23.60
2022-09-28T23:07:40.427Z,24.50
2022-09-28T23:12:42.465Z,24.40
2022-09-28T23:17:44.503Z,24.10
2022-09-28T23:22:47.813Z,24.10
2022-09-28T23:27:50.661Z,24.00
2022-09-28T23:32:53.282Z,24.70
2022-09-28T23:37:55.377Z,23.90
2022-09-28T23:42:57.388Z,24.50
2022-09-28T23:47:59.427Z,23.90
2022-09-28T23:53:01.601Z,23.90
2022-09-28T23:58:03.916Z,24.70
